Flood From: 19-02-2018 06:00 Until: 20-02-2018 06:00 warning for: Flood Level: Yellow info button

Although rather usual in this region, locally or potentially dangerous phenomena are expected. (such as local winds, summer thunderstorms, rising streams or high waves) Be aware and pay attention to the latest weather updates, especially if you carry out activities exposed to weather or close to a stream or shoreline. 


Meteo18 Weather Cam more information Meteo18 Weather Cam


Thunder radar more information blitzortung!


Rain radar more information rain snow radar


Visit our other weather sites:

Template documentation
and downloads

And another site



Weather Underground History page Text

Daily Summary for April 8, 2017 Units:  Both    English   Metric
« Previous Day
Next Day »
Daily Weekly Monthly Yearly Custom
  High: Low: Average:
Temperature: TemperatureC °F /  -17.8 °C 7.0 °F /  -13.9 °C 14.5 °F /  -9.7 °C
Dew Point: DewpointC °F /  -17.8 °C 5.1 °F /  -14.9 °C 7.9 °F /  -13.4 °C
Humidity: Humidity % 42 % 66 %
Wind Speed: WindSpeedKMH mph /  0 km/h - 3.3 mph /  5.3 km/h
Wind Gust: WindSpeedGustKMH mph /  0 km/h - -
Wind:- - ESE
Pressure: PressurehPa in /  0 hPa 1021.6 in /  34591.4 hPa -
Precipitation: 0.0 in /  0 mm    
Historical Graphs
 
 
Tabular Data for April 8, 2017
Time Temperature Dew Point Pressure Wind Wind Speed Wind Gust Humidity Rainfall Rate (Hourly)
TemperatureC °F /  -17.8 °C DewpointC °F /  -17.8 °C PressurehPa in /  0 hPa Calm     Humidity % HourlyPrecipMM in /  0 mm
00:02 10.6 °F /  -11.9 °C 6.4 °F /  -14.2 °C 1024.9 in /  34703.1 hPa WNW 1.6 mph /  2.6 km/h 6.4 mph /  10.3 km/h 75 % 0.0 in /  0 mm
00:07 10.5 °F /  -11.9 °C 6.4 °F /  -14.2 °C 1024.9 in /  34703.1 hPa Calm   6.4 mph /  10.3 km/h 76 % 0.0 in /  0 mm
00:12 10.4 °F /  -12 °C 6.4 °F /  -14.2 °C 1024.9 in /  34703.1 hPa NNW 1.6 mph /  2.6 km/h 3.2 mph /  5.1 km/h 76 % 0.0 in /  0 mm
00:17 10.4 °F /  -12 °C 6.4 °F /  -14.2 °C 1024.9 in /  34703.1 hPa NNW 1.6 mph /  2.6 km/h 3.2 mph /  5.1 km/h 76 % 0.0 in /  0 mm
00:22 10.4 °F /  -12 °C 6.4 °F /  -14.2 °C 1024.9 in /  34703.1 hPa NNE 1.6 mph /  2.6 km/h 6.4 mph /  10.3 km/h 76 % 0.0 in /  0 mm
00:27 10.3 °F /  -12.1 °C 6.4 °F /  -14.2 °C 1024.9 in /  34703.1 hPa North 3.2 mph /  5.1 km/h 6.4 mph /  10.3 km/h 77 % 0.0 in /  0 mm
00:32 10.3 °F /  -12.1 °C 6.4 °F /  -14.2 °C 1024.9 in /  34703.1 hPa NNE 4.8 mph /  7.7 km/h 6.4 mph /  10.3 km/h 77 % 0.0 in /  0 mm
00:37 10.2 °F /  -12.1 °C 6.3 °F /  -14.3 °C 1024.9 in /  34703.1 hPa North 3.2 mph /  5.1 km/h 8.0 mph /  12.9 km/h 77 % 0.0 in /  0 mm
00:42 10.2 °F /  -12.1 °C 6.3 °F /  -14.3 °C 1024.9 in /  34703.1 hPa North 1.6 mph /  2.6 km/h 8.0 mph /  12.9 km/h 77 % 0.0 in /  0 mm
00:47 10.1 °F /  -12.2 °C 6.4 °F /  -14.2 °C 1024.9 in /  34703.1 hPa NNW 1.6 mph /  2.6 km/h 8.0 mph /  12.9 km/h 78 % 0.0 in /  0 mm
00:52 10.1 °F /  -12.2 °C 6.4 °F /  -14.2 °C 1024.9 in /  34703.1 hPa North 1.6 mph /  2.6 km/h 6.4 mph /  10.3 km/h 78 % 0.0 in /  0 mm
00:57 10.0 °F /  -12.2 °C 6.3 °F /  -14.3 °C 1024.9 in /  34703.1 hPa NNW 1.6 mph /  2.6 km/h 6.4 mph /  10.3 km/h 78 % 0.0 in /  0 mm
01:02 9.9 °F /  -12.3 °C 6.2 °F /  -14.3 °C 1024.9 in /  34703.1 hPa NNW 3.2 mph /  5.1 km/h 6.4 mph /  10.3 km/h 78 % 0.0 in /  0 mm
01:07 9.8 °F /  -12.3 °C 6.3 °F /  -14.3 °C 1024.9 in /  34703.1 hPa North 3.2 mph /  5.1 km/h 6.4 mph /  10.3 km/h 79 % 0.0 in /  0 mm
01:12 9.8 °F /  -12.3 °C 6.3 °F /  -14.3 °C 1024.9 in /  34703.1 hPa Calm   6.4 mph /  10.3 km/h 79 % 0.0 in /  0 mm
01:17 9.8 °F /  -12.3 °C 6.3 °F /  -14.3 °C 1024.9 in /  34703.1 hPa NNW 3.2 mph /  5.1 km/h 6.4 mph /  10.3 km/h 79 % 0.0 in /  0 mm
01:22 9.7 °F /  -12.4 °C 6.2 °F /  -14.3 °C 1024.9 in /  34703.1 hPa NNW 1.6 mph /  2.6 km/h 8.0 mph /  12.9 km/h 79 % 0.0 in /  0 mm
01:27 9.7 °F /  -12.4 °C 6.2 °F /  -14.3 °C 1024.9 in /  34703.1 hPa North 4.8 mph /  7.7 km/h 8.0 mph /  12.9 km/h 79 % 0.0 in /  0 mm
01:32 9.6 °F /  -12.4 °C 6.3 °F /  -14.3 °C 1024.9 in /  34703.1 hPa NNW 1.6 mph /  2.6 km/h 6.4 mph /  10.3 km/h 80 % 0.0 in /  0 mm
01:37 9.5 °F /  -12.5 °C 6.2 °F /  -14.3 °C 1024.9 in /  34703.1 hPa NE 1.6 mph /  2.6 km/h 6.4 mph /  10.3 km/h 80 % 0.0 in /  0 mm
01:42 9.5 °F /  -12.5 °C 6.2 °F /  -14.3 °C 1024.9 in /  34703.1 hPa Calm   6.4 mph /  10.3 km/h 80 % 0.0 in /  0 mm
01:52 9.3 °F /  -12.6 °C 6.0 °F /  -14.4 °C 1024.9 in /  34703.1 hPa Calm   4.8 mph /  7.7 km/h 80 % 0.0 in /  0 mm
01:57 9.2 °F /  -12.7 °C 6.1 °F /  -14.4 °C 1024.9 in /  34703.1 hPa Calm   6.4 mph /  10.3 km/h 81 % 0.0 in /  0 mm
02:02 9.2 °F /  -12.7 °C 6.1 °F /  -14.4 °C 1024.6 in /  34693 hPa North 3.2 mph /  5.1 km/h 6.4 mph /  10.3 km/h 81 % 0.0 in /  0 mm
02:07 9.3 °F /  -12.6 °C 6.2 °F /  -14.3 °C 1024.6 in /  34693 hPa Calm   6.4 mph /  10.3 km/h 81 % 0.0 in /  0 mm
02:12 9.2 °F /  -12.7 °C 6.1 °F /  -14.4 °C 1024.6 in /  34693 hPa NNW 1.6 mph /  2.6 km/h 6.4 mph /  10.3 km/h 81 % 0.0 in /  0 mm
02:17 9.2 °F /  -12.7 °C 6.1 °F /  -14.4 °C 1024.6 in /  34693 hPa Calm   6.4 mph /  10.3 km/h 81 % 0.0 in /  0 mm
02:22 9.2 °F /  -12.7 °C 6.1 °F /  -14.4 °C 1024.6 in /  34693 hPa North 1.6 mph /  2.6 km/h 6.4 mph /  10.3 km/h 81 % 0.0 in /  0 mm
02:32 9.3 °F /  -12.6 °C 6.2 °F /  -14.3 °C 1024.3 in /  34682.8 hPa Calm   6.4 mph /  10.3 km/h 81 % 0.0 in /  0 mm
02:37 9.4 °F /  -12.6 °C 6.3 °F /  -14.3 °C 1024.3 in /  34682.8 hPa North 3.2 mph /  5.1 km/h 8.0 mph /  12.9 km/h 81 % 0.0 in /  0 mm
02:42 9.4 °F /  -12.6 °C 6.3 °F /  -14.3 °C 1024.3 in /  34682.8 hPa NNW 6.4 mph /  10.3 km/h 9.7 mph /  15.6 km/h 81 % 0.0 in /  0 mm
02:47 9.4 °F /  -12.6 °C 6.3 °F /  -14.3 °C 1024.3 in /  34682.8 hPa North 3.2 mph /  5.1 km/h 9.7 mph /  15.6 km/h 81 % 0.0 in /  0 mm
02:52 9.4 °F /  -12.6 °C 6.3 °F /  -14.3 °C 1024.3 in /  34682.8 hPa North 3.2 mph /  5.1 km/h 11.3 mph /  18.2 km/h 81 % 0.0 in /  0 mm
02:57 9.4 °F /  -12.6 °C 6.3 °F /  -14.3 °C 1024.3 in /  34682.8 hPa NNW 3.2 mph /  5.1 km/h 11.3 mph /  18.2 km/h 81 % 0.0 in /  0 mm
03:02 9.3 °F /  -12.6 °C 6.2 °F /  -14.3 °C 1024.3 in /  34682.8 hPa NW 1.6 mph /  2.6 km/h 11.3 mph /  18.2 km/h 81 % 0.0 in /  0 mm
03:07 9.2 °F /  -12.7 °C 6.3 °F /  -14.3 °C 1024.3 in /  34682.8 hPa Calm   9.7 mph /  15.6 km/h 82 % 0.0 in /  0 mm
03:12 8.9 °F /  -12.8 °C 5.8 °F /  -14.6 °C 1024.3 in /  34682.8 hPa Calm   6.4 mph /  10.3 km/h 81 % 0.0 in /  0 mm
03:17 8.8 °F /  -12.9 °C 6.1 °F /  -14.4 °C 1024.3 in /  34682.8 hPa Calm   6.4 mph /  10.3 km/h 83 % 0.0 in /  0 mm
03:22 8.8 °F /  -12.9 °C 6.1 °F /  -14.4 °C 1024.3 in /  34682.8 hPa North 1.6 mph /  2.6 km/h 4.8 mph /  7.7 km/h 83 % 0.0 in /  0 mm
03:27 8.9 °F /  -12.8 °C 6.2 °F /  -14.3 °C 1024.3 in /  34682.8 hPa Calm   3.2 mph /  5.1 km/h 83 % 0.0 in /  0 mm
03:32 8.8 °F /  -12.9 °C 6.1 °F /  -14.4 °C 1024.3 in /  34682.8 hPa NNE 3.2 mph /  5.1 km/h 4.8 mph /  7.7 km/h 83 % 0.0 in /  0 mm
03:37 8.8 °F /  -12.9 °C 6.1 °F /  -14.4 °C 1024.3 in /  34682.8 hPa NNE 4.8 mph /  7.7 km/h 4.8 mph /  7.7 km/h 83 % 0.0 in /  0 mm
03:42 9.2 °F /  -12.7 °C 6.5 °F /  -14.2 °C 1024.3 in /  34682.8 hPa NNE 4.8 mph /  7.7 km/h 8.0 mph /  12.9 km/h 83 % 0.0 in /  0 mm
03:47 9.4 °F /  -12.6 °C 6.5 °F /  -14.2 °C 1024.3 in /  34682.8 hPa ENE 1.6 mph /  2.6 km/h 8.0 mph /  12.9 km/h 82 % 0.0 in /  0 mm
03:52 9.4 °F /  -12.6 °C 6.3 °F /  -14.3 °C 1024.3 in /  34682.8 hPa Calm   8.0 mph /  12.9 km/h 81 % 0.0 in /  0 mm
03:57 9.2 °F /  -12.7 °C 6.1 °F /  -14.4 °C 1024.3 in /  34682.8 hPa ENE 1.6 mph /  2.6 km/h 6.4 mph /  10.3 km/h 81 % 0.0 in /  0 mm
04:02 9.1 °F /  -12.7 °C 6.2 °F /  -14.3 °C 1023.9 in /  34669.3 hPa Calm   3.2 mph /  5.1 km/h 82 % 0.0 in /  0 mm
04:07 8.9 °F /  -12.8 °C 6.0 °F /  -14.4 °C 1023.9 in /  34669.3 hPa NNE 1.6 mph /  2.6 km/h 1.6 mph /  2.6 km/h 82 % 0.0 in /  0 mm
04:12 8.7 °F /  -12.9 °C 5.8 °F /  -14.6 °C 1023.9 in /  34669.3 hPa Calm   1.6 mph /  2.6 km/h 82 % 0.0 in /  0 mm
04:17 8.3 °F /  -13.2 °C 5.6 °F /  -14.7 °C 1023.9 in /  34669.3 hPa WNW 1.6 mph /  2.6 km/h 1.6 mph /  2.6 km/h 83 % 0.0 in /  0 mm
04:22 8.3 °F /  -13.2 °C 5.9 °F /  -14.5 °C 1023.9 in /  34669.3 hPa NW 3.2 mph /  5.1 km/h 3.2 mph /  5.1 km/h 85 % 0.0 in /  0 mm
04:27 8.6 °F /  -13 °C 6.2 °F /  -14.3 °C 1023.9 in /  34669.3 hPa Calm   3.2 mph /  5.1 km/h 85 % 0.0 in /  0 mm
04:32 8.8 °F /  -12.9 °C 6.2 °F /  -14.3 °C 1023.9 in /  34669.3 hPa Calm   3.2 mph /  5.1 km/h 84 % 0.0 in /  0 mm
04:37 8.7 °F /  -12.9 °C 6.0 °F /  -14.4 °C 1023.9 in /  34669.3 hPa Calm   3.2 mph /  5.1 km/h 83 % 0.0 in /  0 mm
04:42 8.7 °F /  -12.9 °C 6.1 °F /  -14.4 °C 1023.9 in /  34669.3 hPa Calm   1.6 mph /  2.6 km/h 84 % 0.0 in /  0 mm
04:47 8.8 °F /  -12.9 °C 6.2 °F /  -14.3 °C 1023.9 in /  34669.3 hPa NNW 1.6 mph /  2.6 km/h 1.6 mph /  2.6 km/h 84 % 0.0 in /  0 mm
04:52 8.8 °F /  -12.9 °C 6.1 °F /  -14.4 °C 1023.9 in /  34669.3 hPa NNW 1.6 mph /  2.6 km/h 3.2 mph /  5.1 km/h 83 % 0.0 in /  0 mm
04:57 8.9 °F /  -12.8 °C 6.2 °F /  -14.3 °C 1023.9 in /  34669.3 hPa North 1.6 mph /  2.6 km/h 3.2 mph /  5.1 km/h 83 % 0.0 in /  0 mm
05:02 8.9 °F /  -12.8 °C 6.2 °F /  -14.3 °C 1023.9 in /  34669.3 hPa NNW 1.6 mph /  2.6 km/h 3.2 mph /  5.1 km/h 83 % 0.0 in /  0 mm
05:07 8.7 °F /  -12.9 °C 5.8 °F /  -14.6 °C 1023.9 in /  34669.3 hPa NNW 1.6 mph /  2.6 km/h 4.8 mph /  7.7 km/h 82 % 0.0 in /  0 mm
05:12 8.6 °F /  -13 °C 5.9 °F /  -14.5 °C 1023.9 in /  34669.3 hPa Calm   4.8 mph /  7.7 km/h 83 % 0.0 in /  0 mm
05:17 8.5 °F /  -13.1 °C 5.8 °F /  -14.6 °C 1023.6 in /  34659.1 hPa NW 1.6 mph /  2.6 km/h 4.8 mph /  7.7 km/h 83 % 0.0 in /  0 mm
05:22 8.3 °F /  -13.2 °C 5.8 °F /  -14.6 °C 1023.9 in /  34669.3 hPa NNW 1.6 mph /  2.6 km/h 4.8 mph /  7.7 km/h 84 % 0.0 in /  0 mm
05:42 7.9 °F /  -13.4 °C 5.5 °F /  -14.7 °C 1023.6 in /  34659.1 hPa Calm   4.8 mph /  7.7 km/h 85 % 0.0 in /  0 mm
05:47 7.8 °F /  -13.4 °C 5.6 °F /  -14.7 °C 1023.6 in /  34659.1 hPa NNW 3.2 mph /  5.1 km/h 4.8 mph /  7.7 km/h 86 % 0.0 in /  0 mm
05:52 7.8 °F /  -13.4 °C 5.6 °F /  -14.7 °C 1023.6 in /  34659.1 hPa NNW 1.6 mph /  2.6 km/h 4.8 mph /  7.7 km/h 86 % 0.0 in /  0 mm
05:57 7.8 °F /  -13.4 °C 5.6 °F /  -14.7 °C 1023.6 in /  34659.1 hPa North 1.6 mph /  2.6 km/h 3.2 mph /  5.1 km/h 86 % 0.0 in /  0 mm
06:02 7.8 °F /  -13.4 °C 5.6 °F /  -14.7 °C 1023.6 in /  34659.1 hPa NNE 1.6 mph /  2.6 km/h 3.2 mph /  5.1 km/h 86 % 0.0 in /  0 mm
06:12 7.8 °F /  -13.4 °C 5.6 °F /  -14.7 °C 1023.6 in /  34659.1 hPa North 1.6 mph /  2.6 km/h 4.8 mph /  7.7 km/h 86 % 0.0 in /  0 mm
06:17 7.7 °F /  -13.5 °C 5.5 °F /  -14.7 °C 1023.6 in /  34659.1 hPa Calm   4.8 mph /  7.7 km/h 86 % 0.0 in /  0 mm
06:22 7.7 °F /  -13.5 °C 5.5 °F /  -14.7 °C 1023.6 in /  34659.1 hPa NNW 4.8 mph /  7.7 km/h 4.8 mph /  7.7 km/h 86 % 0.0 in /  0 mm
06:32 7.7 °F /  -13.5 °C 5.7 °F /  -14.6 °C 1023.6 in /  34659.1 hPa North 1.6 mph /  2.6 km/h 4.8 mph /  7.7 km/h 87 % 0.0 in /  0 mm
06:37 7.7 °F /  -13.5 °C 5.7 °F /  -14.6 °C 1023.6 in /  34659.1 hPa Calm   4.8 mph /  7.7 km/h 87 % 0.0 in /  0 mm
06:42 7.7 °F /  -13.5 °C 5.7 °F /  -14.6 °C 1023.6 in /  34659.1 hPa NNW 1.6 mph /  2.6 km/h 4.8 mph /  7.7 km/h 87 % 0.0 in /  0 mm
06:47 7.7 °F /  -13.5 °C 5.7 °F /  -14.6 °C 1023.6 in /  34659.1 hPa Calm   4.8 mph /  7.7 km/h 87 % 0.0 in /  0 mm
06:52 7.7 °F /  -13.5 °C 5.7 °F /  -14.6 °C 1023.6 in /  34659.1 hPa North 3.2 mph /  5.1 km/h 4.8 mph /  7.7 km/h 87 % 0.0 in /  0 mm
06:57 7.7 °F /  -13.5 °C 5.7 °F /  -14.6 °C 1023.6 in /  34659.1 hPa North 1.6 mph /  2.6 km/h 3.2 mph /  5.1 km/h 87 % 0.0 in /  0 mm
07:02 7.6 °F /  -13.6 °C 5.6 °F /  -14.7 °C 1023.6 in /  34659.1 hPa Calm   3.2 mph /  5.1 km/h 87 % 0.0 in /  0 mm
07:12 7.5 °F /  -13.6 °C 5.5 °F /  -14.7 °C 1023.6 in /  34659.1 hPa Calm   3.2 mph /  5.1 km/h 87 % 0.0 in /  0 mm
07:17 7.3 °F /  -13.7 °C 5.3 °F /  -14.8 °C 1023.6 in /  34659.1 hPa Calm   3.2 mph /  5.1 km/h 87 % 0.0 in /  0 mm
07:22 7.1 °F /  -13.8 °C 5.1 °F /  -14.9 °C 1023.6 in /  34659.1 hPa Calm   3.2 mph /  5.1 km/h 87 % 0.0 in /  0 mm
07:27 7.1 °F /  -13.8 °C 5.2 °F /  -14.9 °C 1023.6 in /  34659.1 hPa Calm   1.6 mph /  2.6 km/h 88 % 0.0 in /  0 mm
07:32 7.0 °F /  -13.9 °C 5.1 °F /  -14.9 °C 1023.6 in /  34659.1 hPa Calm   1.6 mph /  2.6 km/h 88 % 0.0 in /  0 mm
07:37 7.1 °F /  -13.8 °C 5.4 °F /  -14.8 °C 1023.6 in /  34659.1 hPa Calm     89 % 0.0 in /  0 mm
07:42 7.2 °F /  -13.8 °C 5.5 °F /  -14.7 °C 1023.6 in /  34659.1 hPa Calm     89 % 0.0 in /  0 mm
07:47 7.3 °F /  -13.7 °C 5.6 °F /  -14.7 °C 1023.9 in /  34669.3 hPa Calm     89 % 0.0 in /  0 mm
07:52 7.5 °F /  -13.6 °C 5.6 °F /  -14.7 °C 1023.9 in /  34669.3 hPa Calm     88 % 0.0 in /  0 mm
07:57 7.8 °F /  -13.4 °C 5.9 °F /  -14.5 °C 1023.9 in /  34669.3 hPa NE 4.8 mph /  7.7 km/h 9.7 mph /  15.6 km/h 88 % 0.0 in /  0 mm
08:02 8.2 °F /  -13.2 °C 6.2 °F /  -14.3 °C 1023.9 in /  34669.3 hPa NE 1.6 mph /  2.6 km/h 9.7 mph /  15.6 km/h 87 % 0.0 in /  0 mm
08:12 8.8 °F /  -12.9 °C 6.4 °F /  -14.2 °C 1023.9 in /  34669.3 hPa NNE 3.2 mph /  5.1 km/h 9.7 mph /  15.6 km/h 85 % 0.0 in /  0 mm
08:17 9.0 °F /  -12.8 °C 6.4 °F /  -14.2 °C 1023.9 in /  34669.3 hPa NE 4.8 mph /  7.7 km/h 11.3 mph /  18.2 km/h 84 % 0.0 in /  0 mm
08:22 9.2 °F /  -12.7 °C 6.6 °F /  -14.1 °C 1023.9 in /  34669.3 hPa NNE 4.8 mph /  7.7 km/h 11.3 mph /  18.2 km/h 84 % 0.0 in /  0 mm
08:27 9.4 °F /  -12.6 °C 6.7 °F /  -14.1 °C 1023.9 in /  34669.3 hPa Calm   11.3 mph /  18.2 km/h 83 % 0.0 in /  0 mm
08:32 9.6 °F /  -12.4 °C 6.9 °F /  -13.9 °C 1023.9 in /  34669.3 hPa NNE 3.2 mph /  5.1 km/h 11.3 mph /  18.2 km/h 83 % 0.0 in /  0 mm
08:37 9.6 °F /  -12.4 °C 6.7 °F /  -14.1 °C 1023.9 in /  34669.3 hPa NE 3.2 mph /  5.1 km/h 8.0 mph /  12.9 km/h 82 % 0.0 in /  0 mm
08:42 9.7 °F /  -12.4 °C 6.8 °F /  -14 °C 1023.9 in /  34669.3 hPa NNE 6.4 mph /  10.3 km/h 9.7 mph /  15.6 km/h 82 % 0.0 in /  0 mm
08:47 9.7 °F /  -12.4 °C 6.8 °F /  -14 °C 1024.3 in /  34682.8 hPa ENE 6.4 mph /  10.3 km/h 9.7 mph /  15.6 km/h 82 % 0.0 in /  0 mm
08:52 9.9 °F /  -12.3 °C 7.0 °F /  -13.9 °C 1023.9 in /  34669.3 hPa NE 4.8 mph /  7.7 km/h 11.3 mph /  18.2 km/h 82 % 0.0 in /  0 mm
08:57 10.2 °F /  -12.1 °C 7.3 °F /  -13.7 °C 1024.3 in /  34682.8 hPa NE 6.4 mph /  10.3 km/h 11.3 mph /  18.2 km/h 82 % 0.0 in /  0 mm
09:02 10.3 °F /  -12.1 °C 7.4 °F /  -13.7 °C 1024.3 in /  34682.8 hPa NE 3.2 mph /  5.1 km/h 11.3 mph /  18.2 km/h 82 % 0.0 in /  0 mm
09:07 10.6 °F /  -11.9 °C 7.7 °F /  -13.5 °C 1024.3 in /  34682.8 hPa NNE 3.2 mph /  5.1 km/h 9.7 mph /  15.6 km/h 82 % 0.0 in /  0 mm
09:12 10.7 °F /  -11.8 °C 7.4 °F /  -13.7 °C 1024.3 in /  34682.8 hPa NE 6.4 mph /  10.3 km/h 12.9 mph /  20.8 km/h 80 % 0.0 in /  0 mm
09:17 10.8 °F /  -11.8 °C 7.5 °F /  -13.6 °C 1024.3 in /  34682.8 hPa NE 1.6 mph /  2.6 km/h 12.9 mph /  20.8 km/h 80 % 0.0 in /  0 mm
09:22 10.9 °F /  -11.7 °C 7.6 °F /  -13.6 °C 1024.3 in /  34682.8 hPa North 4.8 mph /  7.7 km/h 12.9 mph /  20.8 km/h 80 % 0.0 in /  0 mm
09:27 11.1 °F /  -11.6 °C 7.6 °F /  -13.6 °C 1023.9 in /  34669.3 hPa NNE 4.8 mph /  7.7 km/h 11.3 mph /  18.2 km/h 79 % 0.0 in /  0 mm
09:32 11.1 °F /  -11.6 °C 7.4 °F /  -13.7 °C 1024.3 in /  34682.8 hPa NNE 1.6 mph /  2.6 km/h 11.3 mph /  18.2 km/h 78 % 0.0 in /  0 mm
09:37 11.2 °F /  -11.6 °C 7.5 °F /  -13.6 °C 1024.3 in /  34682.8 hPa NE 3.2 mph /  5.1 km/h 8.0 mph /  12.9 km/h 78 % 0.0 in /  0 mm
09:42 11.3 °F /  -11.5 °C 7.6 °F /  -13.6 °C 1024.3 in /  34682.8 hPa North 1.6 mph /  2.6 km/h 9.7 mph /  15.6 km/h 78 % 0.0 in /  0 mm
09:47 11.6 °F /  -11.3 °C 7.9 °F /  -13.4 °C 1024.3 in /  34682.8 hPa East 3.2 mph /  5.1 km/h 9.7 mph /  15.6 km/h 78 % 0.0 in /  0 mm
09:52 11.8 °F /  -11.2 °C 8.1 °F /  -13.3 °C 1024.3 in /  34682.8 hPa ESE 3.2 mph /  5.1 km/h 8.0 mph /  12.9 km/h 78 % 0.0 in /  0 mm
09:57 12.0 °F /  -11.1 °C 7.9 °F /  -13.4 °C 1024.3 in /  34682.8 hPa ENE 3.2 mph /  5.1 km/h 8.0 mph /  12.9 km/h 76 % 0.0 in /  0 mm
10:02 12.0 °F /  -11.1 °C 7.9 °F /  -13.4 °C 1024.3 in /  34682.8 hPa East 4.8 mph /  7.7 km/h 8.0 mph /  12.9 km/h 76 % 0.0 in /  0 mm
10:07 12.3 °F /  -10.9 °C 8.2 °F /  -13.2 °C 1024.3 in /  34682.8 hPa ENE 4.8 mph /  7.7 km/h 9.7 mph /  15.6 km/h 76 % 0.0 in /  0 mm
10:12 12.6 °F /  -10.8 °C 8.5 °F /  -13.1 °C 1024.3 in /  34682.8 hPa East 1.6 mph /  2.6 km/h 9.7 mph /  15.6 km/h 76 % 0.0 in /  0 mm
10:17 12.8 °F /  -10.7 °C 8.5 °F /  -13.1 °C 1024.3 in /  34682.8 hPa Calm   8.0 mph /  12.9 km/h 75 % 0.0 in /  0 mm
10:22 13.1 °F /  -10.5 °C 8.6 °F /  -13 °C 1024.3 in /  34682.8 hPa NNE 3.2 mph /  5.1 km/h 8.0 mph /  12.9 km/h 74 % 0.0 in /  0 mm
10:32 13.2 °F /  -10.4 °C 8.3 °F /  -13.2 °C 1024.3 in /  34682.8 hPa ENE 4.8 mph /  7.7 km/h 8.0 mph /  12.9 km/h 72 % 0.0 in /  0 mm
10:42 13.6 °F /  -10.2 °C 8.9 °F /  -12.8 °C 1024.3 in /  34682.8 hPa Calm   9.7 mph /  15.6 km/h 73 % 0.0 in /  0 mm
10:47 13.7 °F /  -10.2 °C 8.7 °F /  -12.9 °C 1024.3 in /  34682.8 hPa ENE 6.4 mph /  10.3 km/h 9.7 mph /  15.6 km/h 72 % 0.0 in /  0 mm
10:52 13.8 °F /  -10.1 °C 8.8 °F /  -12.9 °C 1024.3 in /  34682.8 hPa Calm   8.0 mph /  12.9 km/h 72 % 0.0 in /  0 mm
10:57 14.2 °F /  -9.9 °C 9.0 °F /  -12.8 °C 1024.3 in /  34682.8 hPa ENE 3.2 mph /  5.1 km/h 8.0 mph /  12.9 km/h 71 % 0.0 in /  0 mm
11:02 14.3 °F /  -9.8 °C 9.1 °F /  -12.7 °C 1024.3 in /  34682.8 hPa NNE 1.6 mph /  2.6 km/h 8.0 mph /  12.9 km/h 71 % 0.0 in /  0 mm
11:07 14.6 °F /  -9.7 °C 9.0 °F /  -12.8 °C 1024.3 in /  34682.8 hPa ENE 1.6 mph /  2.6 km/h 8.0 mph /  12.9 km/h 69 % 0.0 in /  0 mm
11:12 14.7 °F /  -9.6 °C 9.3 °F /  -12.6 °C 1024.3 in /  34682.8 hPa NNE 4.8 mph /  7.7 km/h 9.7 mph /  15.6 km/h 70 % 0.0 in /  0 mm
11:17 14.9 °F /  -9.5 °C 9.3 °F /  -12.6 °C 1024.3 in /  34682.8 hPa ESE 4.8 mph /  7.7 km/h 9.7 mph /  15.6 km/h 69 % 0.0 in /  0 mm
11:22 15.0 °F /  -9.4 °C 9.1 °F /  -12.7 °C 1024.3 in /  34682.8 hPa NE 3.2 mph /  5.1 km/h 9.7 mph /  15.6 km/h 68 % 0.0 in /  0 mm
11:32 15.6 °F /  -9.1 °C 9.7 °F /  -12.4 °C 1024.3 in /  34682.8 hPa ESE 1.6 mph /  2.6 km/h 6.4 mph /  10.3 km/h 68 % 0.0 in /  0 mm
11:37 15.7 °F /  -9.1 °C 9.4 °F /  -12.6 °C 1024.3 in /  34682.8 hPa ENE 4.8 mph /  7.7 km/h 8.0 mph /  12.9 km/h 66 % 0.0 in /  0 mm
11:42 15.8 °F /  -9 °C 9.7 °F /  -12.4 °C 1024.3 in /  34682.8 hPa NE 3.2 mph /  5.1 km/h 8.0 mph /  12.9 km/h 67 % 0.0 in /  0 mm
11:47 16.0 °F /  -8.9 °C 9.7 °F /  -12.4 °C 1024.3 in /  34682.8 hPa Calm   8.0 mph /  12.9 km/h 66 % 0.0 in /  0 mm
11:52 16.2 °F /  -8.8 °C 9.6 °F /  -12.4 °C 1024.3 in /  34682.8 hPa East 4.8 mph /  7.7 km/h 6.4 mph /  10.3 km/h 65 % 0.0 in /  0 mm
11:57 16.4 °F /  -8.7 °C 8.9 °F /  -12.8 °C 1024.3 in /  34682.8 hPa SE 6.4 mph /  10.3 km/h 8.0 mph /  12.9 km/h 61 % 0.0 in /  0 mm
12:02 16.8 °F /  -8.4 °C 10.0 °F /  -12.2 °C 1024.3 in /  34682.8 hPa SE 4.8 mph /  7.7 km/h 9.7 mph /  15.6 km/h 64 % 0.0 in /  0 mm
12:07 17.2 °F /  -8.2 °C 9.4 °F /  -12.6 °C 1024.3 in /  34682.8 hPa SSE 1.6 mph /  2.6 km/h 9.7 mph /  15.6 km/h 60 % 0.0 in /  0 mm
12:12 17.2 °F /  -8.2 °C 9.1 °F /  -12.7 °C 1024.3 in /  34682.8 hPa Calm   9.7 mph /  15.6 km/h 59 % 0.0 in /  0 mm
12:17 17.4 °F /  -8.1 °C 9.6 °F /  -12.4 °C 1024.3 in /  34682.8 hPa ENE 4.8 mph /  7.7 km/h 6.4 mph /  10.3 km/h 60 % 0.0 in /  0 mm
12:22 17.4 °F /  -8.1 °C 10.0 °F /  -12.2 °C 1024.3 in /  34682.8 hPa NNE 3.2 mph /  5.1 km/h 6.4 mph /  10.3 km/h 62 % 0.0 in /  0 mm
12:27 17.2 °F /  -8.2 °C 9.1 °F /  -12.7 °C 1024.3 in /  34682.8 hPa ENE 1.6 mph /  2.6 km/h 8.0 mph /  12.9 km/h 59 % 0.0 in /  0 mm
12:32 17.3 °F /  -8.2 °C 9.2 °F /  -12.7 °C 1024.3 in /  34682.8 hPa East 3.2 mph /  5.1 km/h 8.0 mph /  12.9 km/h 59 % 0.0 in /  0 mm
12:42 17.4 °F /  -8.1 °C 9.3 °F /  -12.6 °C 1024.3 in /  34682.8 hPa East 4.8 mph /  7.7 km/h 9.7 mph /  15.6 km/h 59 % 0.0 in /  0 mm
12:47 17.3 °F /  -8.2 °C 9.5 °F /  -12.5 °C 1023.9 in /  34669.3 hPa ENE 4.8 mph /  7.7 km/h 9.7 mph /  15.6 km/h 60 % 0.0 in /  0 mm
12:52 17.4 °F /  -8.1 °C 9.3 °F /  -12.6 °C 1023.9 in /  34669.3 hPa ENE 6.4 mph /  10.3 km/h 11.3 mph /  18.2 km/h 59 % 0.0 in /  0 mm
13:02 17.6 °F /  -8 °C 9.2 °F /  -12.7 °C 1023.9 in /  34669.3 hPa NE 4.8 mph /  7.7 km/h 11.3 mph /  18.2 km/h 58 % 0.0 in /  0 mm
13:07 17.8 °F /  -7.9 °C 9.4 °F /  -12.6 °C 1023.9 in /  34669.3 hPa ESE 1.6 mph /  2.6 km/h 12.9 mph /  20.8 km/h 58 % 0.0 in /  0 mm
13:12 18.0 °F /  -7.8 °C 9.6 °F /  -12.4 °C 1023.9 in /  34669.3 hPa ENE 8.0 mph /  12.9 km/h 12.9 mph /  20.8 km/h 58 % 0.0 in /  0 mm
13:17 18.1 °F /  -7.7 °C 9.4 °F /  -12.6 °C 1023.9 in /  34669.3 hPa Calm   12.9 mph /  20.8 km/h 57 % 0.0 in /  0 mm
13:22 18.4 °F /  -7.6 °C 10.0 °F /  -12.2 °C 1023.9 in /  34669.3 hPa North 6.4 mph /  10.3 km/h 9.7 mph /  15.6 km/h 58 % 0.0 in /  0 mm
13:27 18.6 °F /  -7.4 °C 9.4 °F /  -12.6 °C 1023.9 in /  34669.3 hPa NNE 6.4 mph /  10.3 km/h 11.3 mph /  18.2 km/h 55 % 0.0 in /  0 mm
13:32 18.6 °F /  -7.4 °C 9.6 °F /  -12.4 °C 1023.6 in /  34659.1 hPa North 3.2 mph /  5.1 km/h 11.3 mph /  18.2 km/h 56 % 0.0 in /  0 mm
13:37 18.8 °F /  -7.3 °C 9.3 °F /  -12.6 °C 1023.6 in /  34659.1 hPa NE 4.8 mph /  7.7 km/h 11.3 mph /  18.2 km/h 54 % 0.0 in /  0 mm
13:42 18.9 °F /  -7.3 °C 9.4 °F /  -12.6 °C 1023.6 in /  34659.1 hPa ENE 3.2 mph /  5.1 km/h 11.3 mph /  18.2 km/h 54 % 0.0 in /  0 mm
13:47 19.1 °F /  -7.2 °C 9.0 °F /  -12.8 °C 1023.6 in /  34659.1 hPa East 9.7 mph /  15.6 km/h 9.7 mph /  15.6 km/h 52 % 0.0 in /  0 mm
13:52 19.1 °F /  -7.2 °C 9.6 °F /  -12.4 °C 1023.6 in /  34659.1 hPa East 6.4 mph /  10.3 km/h 11.3 mph /  18.2 km/h 54 % 0.0 in /  0 mm
13:57 19.0 °F /  -7.2 °C 8.6 °F /  -13 °C 1023.2 in /  34645.6 hPa NNE 11.3 mph /  18.2 km/h 12.9 mph /  20.8 km/h 51 % 0.0 in /  0 mm
14:02 19.2 °F /  -7.1 °C 9.9 °F /  -12.3 °C 1023.2 in /  34645.6 hPa NE 8.0 mph /  12.9 km/h 12.9 mph /  20.8 km/h 55 % 0.0 in /  0 mm
14:07 19.3 °F /  -7.1 °C 9.2 °F /  -12.7 °C 1023.2 in /  34645.6 hPa ESE 1.6 mph /  2.6 km/h 12.9 mph /  20.8 km/h 52 % 0.0 in /  0 mm
14:12 19.5 °F /  -6.9 °C 9.1 °F /  -12.7 °C 1023.2 in /  34645.6 hPa ENE 6.4 mph /  10.3 km/h 11.3 mph /  18.2 km/h 51 % 0.0 in /  0 mm
14:17 19.5 °F /  -6.9 °C 9.4 °F /  -12.6 °C 1023.2 in /  34645.6 hPa East 4.8 mph /  7.7 km/h 11.3 mph /  18.2 km/h 52 % 0.0 in /  0 mm
14:22 19.5 °F /  -6.9 °C 9.4 °F /  -12.6 °C 1023.2 in /  34645.6 hPa NNE 4.8 mph /  7.7 km/h 11.3 mph /  18.2 km/h 52 % 0.0 in /  0 mm
14:27 19.6 °F /  -6.9 °C 9.8 °F /  -12.3 °C 1023.2 in /  34645.6 hPa NE 3.2 mph /  5.1 km/h 14.5 mph /  23.3 km/h 53 % 0.0 in /  0 mm
14:32 19.8 °F /  -6.8 °C 9.9 °F /  -12.3 °C 1023.2 in /  34645.6 hPa East 3.2 mph /  5.1 km/h 14.5 mph /  23.3 km/h 53 % 0.0 in /  0 mm
14:37 19.9 °F /  -6.7 °C 9.8 °F /  -12.3 °C 1023.2 in /  34645.6 hPa ENE 4.8 mph /  7.7 km/h 12.9 mph /  20.8 km/h 52 % 0.0 in /  0 mm
14:42 19.9 °F /  -6.7 °C 9.5 °F /  -12.5 °C 1022.9 in /  34635.4 hPa NE 6.4 mph /  10.3 km/h 12.9 mph /  20.8 km/h 51 % 0.0 in /  0 mm
14:47 19.9 °F /  -6.7 °C 9.5 °F /  -12.5 °C 1023.2 in /  34645.6 hPa NNW 3.2 mph /  5.1 km/h 12.9 mph /  20.8 km/h 51 % 0.0 in /  0 mm
14:52 20.0 °F /  -6.7 °C 9.6 °F /  -12.4 °C 1022.9 in /  34635.4 hPa NNE 4.8 mph /  7.7 km/h 12.9 mph /  20.8 km/h 51 % 0.0 in /  0 mm
14:57 20.2 °F /  -6.6 °C 9.7 °F /  -12.4 °C 1022.9 in /  34635.4 hPa North 1.6 mph /  2.6 km/h 11.3 mph /  18.2 km/h 51 % 0.0 in /  0 mm
15:02 20.6 °F /  -6.3 °C 9.5 °F /  -12.5 °C 1022.9 in /  34635.4 hPa SE 1.6 mph /  2.6 km/h 8.0 mph /  12.9 km/h 49 % 0.0 in /  0 mm
15:07 20.4 °F /  -6.4 °C 9.3 °F /  -12.6 °C 1022.9 in /  34635.4 hPa East 3.2 mph /  5.1 km/h 9.7 mph /  15.6 km/h 49 % 0.0 in /  0 mm
15:12 20.5 °F /  -6.4 °C 9.7 °F /  -12.4 °C 1022.9 in /  34635.4 hPa East 9.7 mph /  15.6 km/h 9.7 mph /  15.6 km/h 50 % 0.0 in /  0 mm
15:17 20.4 °F /  -6.4 °C 8.7 °F /  -12.9 °C 1022.6 in /  34625.2 hPa East 3.2 mph /  5.1 km/h 12.9 mph /  20.8 km/h 47 % 0.0 in /  0 mm
15:22 20.7 °F /  -6.3 °C 9.9 °F /  -12.3 °C 1022.6 in /  34625.2 hPa SE 1.6 mph /  2.6 km/h 12.9 mph /  20.8 km/h 50 % 0.0 in /  0 mm
15:27 20.8 °F /  -6.2 °C 9.7 °F /  -12.4 °C 1022.6 in /  34625.2 hPa ESE 1.6 mph /  2.6 km/h 12.9 mph /  20.8 km/h 49 % 0.0 in /  0 mm
15:32 20.7 °F /  -6.3 °C 9.3 °F /  -12.6 °C 1022.6 in /  34625.2 hPa East 6.4 mph /  10.3 km/h 9.7 mph /  15.6 km/h 48 % 0.0 in /  0 mm
15:37 20.8 °F /  -6.2 °C 9.4 °F /  -12.6 °C 1022.6 in /  34625.2 hPa ENE 1.6 mph /  2.6 km/h 11.3 mph /  18.2 km/h 48 % 0.0 in /  0 mm
15:42 20.9 °F /  -6.2 °C 8.5 °F /  -13.1 °C 1022.6 in /  34625.2 hPa ENE 3.2 mph /  5.1 km/h 11.3 mph /  18.2 km/h 45 % 0.0 in /  0 mm
15:47 20.9 °F /  -6.2 °C 8.2 °F /  -13.2 °C 1022.6 in /  34625.2 hPa NE 3.2 mph /  5.1 km/h 11.3 mph /  18.2 km/h 44 % 0.0 in /  0 mm
15:52 21.1 °F /  -6.1 °C 9.0 °F /  -12.8 °C 1022.6 in /  34625.2 hPa ENE 3.2 mph /  5.1 km/h 8.0 mph /  12.9 km/h 46 % 0.0 in /  0 mm
15:57 21.3 °F /  -5.9 °C 9.2 °F /  -12.7 °C 1022.2 in /  34611.7 hPa East 6.4 mph /  10.3 km/h 8.0 mph /  12.9 km/h 46 % 0.0 in /  0 mm
16:02 21.4 °F /  -5.9 °C 8.6 °F /  -13 °C 1022.2 in /  34611.7 hPa NNW 1.6 mph /  2.6 km/h 12.9 mph /  20.8 km/h 44 % 0.0 in /  0 mm
16:07 21.4 °F /  -5.9 °C 8.3 °F /  -13.2 °C 1022.2 in /  34611.7 hPa ENE 4.8 mph /  7.7 km/h 12.9 mph /  20.8 km/h 43 % 0.0 in /  0 mm
16:12 21.3 °F /  -5.9 °C 9.2 °F /  -12.7 °C 1022.2 in /  34611.7 hPa NE 1.6 mph /  2.6 km/h 12.9 mph /  20.8 km/h 46 % 0.0 in /  0 mm
16:17 21.3 °F /  -5.9 °C 8.9 °F /  -12.8 °C 1022.2 in /  34611.7 hPa NNE 6.4 mph /  10.3 km/h 12.9 mph /  20.8 km/h 45 % 0.0 in /  0 mm
16:22 21.2 °F /  -6 °C 8.8 °F /  -12.9 °C 1022.2 in /  34611.7 hPa ENE 6.4 mph /  10.3 km/h 16.1 mph /  25.9 km/h 45 % 0.0 in /  0 mm
16:27 21.2 °F /  -6 °C 8.8 °F /  -12.9 °C 1022.2 in /  34611.7 hPa NE 6.4 mph /  10.3 km/h 16.1 mph /  25.9 km/h 45 % 0.0 in /  0 mm
16:32 21.5 °F /  -5.8 °C 8.4 °F /  -13.1 °C 1022.2 in /  34611.7 hPa NE 6.4 mph /  10.3 km/h 12.9 mph /  20.8 km/h 43 % 0.0 in /  0 mm
16:37 21.4 °F /  -5.9 °C 8.3 °F /  -13.2 °C 1022.2 in /  34611.7 hPa NE 6.4 mph /  10.3 km/h 12.9 mph /  20.8 km/h 43 % 0.0 in /  0 mm
16:42 21.4 °F /  -5.9 °C 8.6 °F /  -13 °C 1022.2 in /  34611.7 hPa Calm   12.9 mph /  20.8 km/h 44 % 0.0 in /  0 mm
16:47 21.7 °F /  -5.7 °C 8.9 °F /  -12.8 °C 1022.2 in /  34611.7 hPa East 4.8 mph /  7.7 km/h 12.9 mph /  20.8 km/h 44 % 0.0 in /  0 mm
16:52 21.6 °F /  -5.8 °C 9.8 °F /  -12.3 °C 1021.9 in /  34601.5 hPa ENE 4.8 mph /  7.7 km/h 9.7 mph /  15.6 km/h 47 % 0.0 in /  0 mm
16:57 21.5 °F /  -5.8 °C 8.4 °F /  -13.1 °C 1021.9 in /  34601.5 hPa ENE 6.4 mph /  10.3 km/h 12.9 mph /  20.8 km/h 43 % 0.0 in /  0 mm
17:02 21.5 °F /  -5.8 °C 9.4 °F /  -12.6 °C 1021.9 in /  34601.5 hPa NNE 9.7 mph /  15.6 km/h 12.9 mph /  20.8 km/h 46 % 0.0 in /  0 mm
17:07 21.6 °F /  -5.8 °C 8.8 °F /  -12.9 °C 1021.9 in /  34601.5 hPa NE 4.8 mph /  7.7 km/h 12.9 mph /  20.8 km/h 44 % 0.0 in /  0 mm
17:12 21.6 °F /  -5.8 °C 8.5 °F /  -13.1 °C 1021.9 in /  34601.5 hPa NE 4.8 mph /  7.7 km/h 12.9 mph /  20.8 km/h 43 % 0.0 in /  0 mm
17:17 21.7 °F /  -5.7 °C 8.9 °F /  -12.8 °C 1021.9 in /  34601.5 hPa NE 4.8 mph /  7.7 km/h 9.7 mph /  15.6 km/h 44 % 0.0 in /  0 mm
17:22 21.7 °F /  -5.7 °C 9.2 °F /  -12.7 °C 1021.9 in /  34601.5 hPa NNE 11.3 mph /  18.2 km/h 19.3 mph /  31.1 km/h 45 % 0.0 in /  0 mm
17:27 21.6 °F /  -5.8 °C 8.8 °F /  -12.9 °C 1021.9 in /  34601.5 hPa NNE 11.3 mph /  18.2 km/h 19.3 mph /  31.1 km/h 44 % 0.0 in /  0 mm
17:32 21.4 °F /  -5.9 °C 8.0 °F /  -13.3 °C 1021.9 in /  34601.5 hPa North 4.8 mph /  7.7 km/h 19.3 mph /  31.1 km/h 42 % 0.0 in /  0 mm
17:37 21.7 °F /  -5.7 °C 8.9 °F /  -12.8 °C 1021.6 in /  34591.4 hPa Calm   14.5 mph /  23.3 km/h 44 % 0.0 in /  0 mm
17:42 21.8 °F /  -5.7 °C 9.0 °F /  -12.8 °C 1021.6 in /  34591.4 hPa East 8.0 mph /  12.9 km/h 14.5 mph /  23.3 km/h 44 % 0.0 in /  0 mm
17:47 21.8 °F /  -5.7 °C 10.0 °F /  -12.2 °C 1021.6 in /  34591.4 hPa East 9.7 mph /  15.6 km/h 11.3 mph /  18.2 km/h 47 % 0.0 in /  0 mm
17:52 21.8 °F /  -5.7 °C 8.7 °F /  -12.9 °C 1021.6 in /  34591.4 hPa East 4.8 mph /  7.7 km/h 11.3 mph /  18.2 km/h 43 % 0.0 in /  0 mm
17:57 21.9 °F /  -5.6 °C 9.4 °F /  -12.6 °C 1021.6 in /  34591.4 hPa NE 1.6 mph /  2.6 km/h 11.3 mph /  18.2 km/h 45 % 0.0 in /  0 mm
18:02 22.0 °F /  -5.6 °C 9.5 °F /  -12.5 °C 1021.6 in /  34591.4 hPa NE 4.8 mph /  7.7 km/h 11.3 mph /  18.2 km/h 45 % 0.0 in /  0 mm
18:07 21.9 °F /  -5.6 °C 8.8 °F /  -12.9 °C 1021.6 in /  34591.4 hPa North 4.8 mph /  7.7 km/h 11.3 mph /  18.2 km/h 43 % 0.0 in /  0 mm
18:12 21.8 °F /  -5.7 °C 8.7 °F /  -12.9 °C 1021.6 in /  34591.4 hPa ENE 11.3 mph /  18.2 km/h 11.3 mph /  18.2 km/h 43 % 0.0 in /  0 mm
18:17 21.7 °F /  -5.7 °C 8.2 °F /  -13.2 °C 1021.6 in /  34591.4 hPa NE 4.8 mph /  7.7 km/h 12.9 mph /  20.8 km/h 42 % 0.0 in /  0 mm
18:22 21.8 °F /  -5.7 °C 8.3 °F /  -13.2 °C 1021.6 in /  34591.4 hPa ENE 1.6 mph /  2.6 km/h 12.9 mph /  20.8 km/h 42 % 0.0 in /  0 mm
18:27 21.9 °F /  -5.6 °C 8.8 °F /  -12.9 °C 1021.6 in /  34591.4 hPa East 3.2 mph /  5.1 km/h 12.9 mph /  20.8 km/h 43 % 0.0 in /  0 mm
18:32 21.8 °F /  -5.7 °C 9.3 °F /  -12.6 °C 1021.6 in /  34591.4 hPa East 6.4 mph /  10.3 km/h 12.9 mph /  20.8 km/h 45 % 0.0 in /  0 mm
18:37 21.6 °F /  -5.8 °C 9.8 °F /  -12.3 °C 1021.6 in /  34591.4 hPa ENE 6.4 mph /  10.3 km/h 9.7 mph /  15.6 km/h 47 % 0.0 in /  0 mm
18:42 21.5 °F /  -5.8 °C 9.4 °F /  -12.6 °C 1021.6 in /  34591.4 hPa ENE 3.2 mph /  5.1 km/h 9.7 mph /  15.6 km/h 46 % 0.0 in /  0 mm
18:47 21.6 °F /  -5.8 °C 9.5 °F /  -12.5 °C 1021.6 in /  34591.4 hPa NE 3.2 mph /  5.1 km/h 8.0 mph /  12.9 km/h 46 % 0.0 in /  0 mm
18:52 21.6 °F /  -5.8 °C 9.2 °F /  -12.7 °C 1021.6 in /  34591.4 hPa NNE 4.8 mph /  7.7 km/h 8.0 mph /  12.9 km/h 45 % 0.0 in /  0 mm
18:57 21.6 °F /  -5.8 °C 9.2 °F /  -12.7 °C 1021.6 in /  34591.4 hPa NE 6.4 mph /  10.3 km/h 6.4 mph /  10.3 km/h 45 % 0.0 in /  0 mm
19:07 21.4 °F /  -5.9 °C 9.0 °F /  -12.8 °C 1021.6 in /  34591.4 hPa NE 8.0 mph /  12.9 km/h 11.3 mph /  18.2 km/h 45 % 0.0 in /  0 mm
19:12 21.3 °F /  -5.9 °C 8.6 °F /  -13 °C 1021.6 in /  34591.4 hPa NNW 4.8 mph /  7.7 km/h 11.3 mph /  18.2 km/h 44 % 0.0 in /  0 mm
19:17 21.2 °F /  -6 °C 9.1 °F /  -12.7 °C 1021.6 in /  34591.4 hPa NE 4.8 mph /  7.7 km/h 11.3 mph /  18.2 km/h 46 % 0.0 in /  0 mm
19:22 21.1 °F /  -6.1 °C 9.0 °F /  -12.8 °C 1021.6 in /  34591.4 hPa NNE 4.8 mph /  7.7 km/h 11.3 mph /  18.2 km/h 46 % 0.0 in /  0 mm
19:27 21.1 °F /  -6.1 °C 9.3 °F /  -12.6 °C 1021.6 in /  34591.4 hPa NE 1.6 mph /  2.6 km/h 11.3 mph /  18.2 km/h 47 % 0.0 in /  0 mm
19:32 20.9 °F /  -6.2 °C 9.2 °F /  -12.7 °C 1021.6 in /  34591.4 hPa NNE 6.4 mph /  10.3 km/h 8.0 mph /  12.9 km/h 47 % 0.0 in /  0 mm
19:37 20.8 °F /  -6.2 °C 8.8 °F /  -12.9 °C 1021.6 in /  34591.4 hPa NNE 4.8 mph /  7.7 km/h 9.7 mph /  15.6 km/h 46 % 0.0 in /  0 mm
19:42 20.8 °F /  -6.2 °C 8.8 °F /  -12.9 °C 1021.6 in /  34591.4 hPa NE 8.0 mph /  12.9 km/h 9.7 mph /  15.6 km/h 46 % 0.0 in /  0 mm
19:47 20.6 °F /  -6.3 °C 8.9 °F /  -12.8 °C 1021.6 in /  34591.4 hPa NE 8.0 mph /  12.9 km/h 9.7 mph /  15.6 km/h 47 % 0.0 in /  0 mm
19:52 20.4 °F /  -6.4 °C 8.4 °F /  -13.1 °C 1021.6 in /  34591.4 hPa NE 6.4 mph /  10.3 km/h 9.7 mph /  15.6 km/h 46 % 0.0 in /  0 mm
19:57 20.3 °F /  -6.5 °C 8.3 °F /  -13.2 °C 1021.6 in /  34591.4 hPa NE 6.4 mph /  10.3 km/h 9.7 mph /  15.6 km/h 46 % 0.0 in /  0 mm
20:02 20.2 °F /  -6.6 °C 8.2 °F /  -13.2 °C 1021.6 in /  34591.4 hPa NE 6.4 mph /  10.3 km/h 9.7 mph /  15.6 km/h 46 % 0.0 in /  0 mm
20:07 20.1 °F /  -6.6 °C 8.4 °F /  -13.1 °C 1021.6 in /  34591.4 hPa NE 4.8 mph /  7.7 km/h 9.7 mph /  15.6 km/h 47 % 0.0 in /  0 mm
20:12 19.8 °F /  -6.8 °C 8.8 °F /  -12.9 °C 1021.6 in /  34591.4 hPa NE 3.2 mph /  5.1 km/h 8.0 mph /  12.9 km/h 49 % 0.0 in /  0 mm
20:17 19.6 °F /  -6.9 °C 8.6 °F /  -13 °C 1021.6 in /  34591.4 hPa NE 4.8 mph /  7.7 km/h 8.0 mph /  12.9 km/h 49 % 0.0 in /  0 mm
20:22 19.2 °F /  -7.1 °C 8.8 °F /  -12.9 °C 1021.6 in /  34591.4 hPa NE 3.2 mph /  5.1 km/h 8.0 mph /  12.9 km/h 51 % 0.0 in /  0 mm
20:27 18.8 °F /  -7.3 °C 9.3 °F /  -12.6 °C 1021.6 in /  34591.4 hPa NNE 6.4 mph /  10.3 km/h 8.0 mph /  12.9 km/h 54 % 0.0 in /  0 mm
20:32 18.6 °F /  -7.4 °C 9.6 °F /  -12.4 °C 1021.6 in /  34591.4 hPa NE 8.0 mph /  12.9 km/h 9.7 mph /  15.6 km/h 56 % 0.0 in /  0 mm
20:37 18.6 °F /  -7.4 °C 9.6 °F /  -12.4 °C 1021.6 in /  34591.4 hPa NE 8.0 mph /  12.9 km/h 11.3 mph /  18.2 km/h 56 % 0.0 in /  0 mm
20:42 18.7 °F /  -7.4 °C 9.7 °F /  -12.4 °C 1021.6 in /  34591.4 hPa NE 9.7 mph /  15.6 km/h 11.3 mph /  18.2 km/h 56 % 0.0 in /  0 mm
20:47 18.4 °F /  -7.6 °C 9.5 °F /  -12.5 °C 1021.6 in /  34591.4 hPa NNE 6.4 mph /  10.3 km/h 11.3 mph /  18.2 km/h 56 % 0.0 in /  0 mm
20:52 18.2 °F /  -7.7 °C 9.5 °F /  -12.5 °C 1021.9 in /  34601.5 hPa NE 8.0 mph /  12.9 km/h 11.3 mph /  18.2 km/h 57 % 0.0 in /  0 mm
20:57 18.1 °F /  -7.7 °C 9.7 °F /  -12.4 °C 1021.9 in /  34601.5 hPa NNE 8.0 mph /  12.9 km/h 11.3 mph /  18.2 km/h 58 % 0.0 in /  0 mm
21:02 17.5 °F /  -8.1 °C 9.4 °F /  -12.6 °C 1021.9 in /  34601.5 hPa North 6.4 mph /  10.3 km/h 9.7 mph /  15.6 km/h 59 % 0.0 in /  0 mm
21:07 17.0 °F /  -8.3 °C 9.4 °F /  -12.6 °C 1021.9 in /  34601.5 hPa North 3.2 mph /  5.1 km/h 9.7 mph /  15.6 km/h 61 % 0.0 in /  0 mm
21:12 16.8 °F /  -8.4 °C 9.5 °F /  -12.5 °C 1021.9 in /  34601.5 hPa NNE 3.2 mph /  5.1 km/h 8.0 mph /  12.9 km/h 62 % 0.0 in /  0 mm
21:17 16.5 °F /  -8.6 °C 9.4 °F /  -12.6 °C 1021.9 in /  34601.5 hPa NNE 3.2 mph /  5.1 km/h 8.0 mph /  12.9 km/h 63 % 0.0 in /  0 mm
21:22 16.2 °F /  -8.8 °C 9.4 °F /  -12.6 °C 1021.9 in /  34601.5 hPa NE 3.2 mph /  5.1 km/h 8.0 mph /  12.9 km/h 64 % 0.0 in /  0 mm
21:27 16.1 °F /  -8.8 °C 9.3 °F /  -12.6 °C 1021.9 in /  34601.5 hPa NE 4.8 mph /  7.7 km/h 11.3 mph /  18.2 km/h 64 % 0.0 in /  0 mm
21:32 16.3 °F /  -8.7 °C 9.2 °F /  -12.7 °C 1021.9 in /  34601.5 hPa NE 6.4 mph /  10.3 km/h 11.3 mph /  18.2 km/h 63 % 0.0 in /  0 mm
21:42 16.1 °F /  -8.8 °C 9.1 °F /  -12.7 °C 1022.2 in /  34611.7 hPa NNE 4.8 mph /  7.7 km/h 11.3 mph /  18.2 km/h 63 % 0.0 in /  0 mm
21:47 16.1 °F /  -8.8 °C 9.1 °F /  -12.7 °C 1022.2 in /  34611.7 hPa NNE 3.2 mph /  5.1 km/h 9.7 mph /  15.6 km/h 63 % 0.0 in /  0 mm
21:52 15.8 °F /  -9 °C 9.0 °F /  -12.8 °C 1022.2 in /  34611.7 hPa NE 3.2 mph /  5.1 km/h 8.0 mph /  12.9 km/h 64 % 0.0 in /  0 mm
21:57 15.6 °F /  -9.1 °C 9.0 °F /  -12.8 °C 1022.2 in /  34611.7 hPa North 4.8 mph /  7.7 km/h 8.0 mph /  12.9 km/h 65 % 0.0 in /  0 mm
22:02 15.4 °F /  -9.2 °C 8.9 °F /  -12.8 °C 1022.2 in /  34611.7 hPa Calm   8.0 mph /  12.9 km/h 65 % 0.0 in /  0 mm
22:07 15.3 °F /  -9.3 °C 8.8 °F /  -12.9 °C 1022.2 in /  34611.7 hPa NNE 1.6 mph /  2.6 km/h 8.0 mph /  12.9 km/h 65 % 0.0 in /  0 mm
22:12 15.3 °F /  -9.3 °C 8.8 °F /  -12.9 °C 1022.2 in /  34611.7 hPa NNE 1.6 mph /  2.6 km/h 6.4 mph /  10.3 km/h 65 % 0.0 in /  0 mm
22:17 15.3 °F /  -9.3 °C 8.8 °F /  -12.9 °C 1022.2 in /  34611.7 hPa Calm   6.4 mph /  10.3 km/h 65 % 0.0 in /  0 mm
22:22 15.2 °F /  -9.3 °C 8.7 °F /  -12.9 °C 1022.2 in /  34611.7 hPa Calm   6.4 mph /  10.3 km/h 65 % 0.0 in /  0 mm
22:27 15.1 °F /  -9.4 °C 8.8 °F /  -12.9 °C 1022.2 in /  34611.7 hPa NNW 1.6 mph /  2.6 km/h 3.2 mph /  5.1 km/h 66 % 0.0 in /  0 mm
22:32 14.9 °F /  -9.5 °C 8.6 °F /  -13 °C 1022.2 in /  34611.7 hPa Calm   3.2 mph /  5.1 km/h 66 % 0.0 in /  0 mm
22:37 14.8 °F /  -9.6 °C 8.7 °F /  -12.9 °C 1022.2 in /  34611.7 hPa Calm   3.2 mph /  5.1 km/h 67 % 0.0 in /  0 mm
22:42 14.6 °F /  -9.7 °C 8.5 °F /  -13.1 °C 1022.2 in /  34611.7 hPa North 1.6 mph /  2.6 km/h 3.2 mph /  5.1 km/h 67 % 0.0 in /  0 mm
22:52 14.4 °F /  -9.8 °C 8.6 °F /  -13 °C 1022.2 in /  34611.7 hPa North 3.2 mph /  5.1 km/h 6.4 mph /  10.3 km/h 68 % 0.0 in /  0 mm
22:57 14.4 °F /  -9.8 °C 8.6 °F /  -13 °C 1022.2 in /  34611.7 hPa NE 3.2 mph /  5.1 km/h 6.4 mph /  10.3 km/h 68 % 0.0 in /  0 mm
23:02 14.3 °F /  -9.8 °C 8.7 °F /  -12.9 °C 1022.2 in /  34611.7 hPa Calm   4.8 mph /  7.7 km/h 69 % 0.0 in /  0 mm
23:07 14.2 °F /  -9.9 °C 8.6 °F /  -13 °C 1022.2 in /  34611.7 hPa ENE 1.6 mph /  2.6 km/h 6.4 mph /  10.3 km/h 69 % 0.0 in /  0 mm
23:12 14.2 °F /  -9.9 °C 8.6 °F /  -13 °C 1022.2 in /  34611.7 hPa North 3.2 mph /  5.1 km/h 6.4 mph /  10.3 km/h 69 % 0.0 in /  0 mm
23:17 14.1 °F /  -9.9 °C 8.5 °F /  -13.1 °C 1022.2 in /  34611.7 hPa NNE 3.2 mph /  5.1 km/h 6.4 mph /  10.3 km/h 69 % 0.0 in /  0 mm
23:22 14.1 °F /  -9.9 °C 8.5 °F /  -13.1 °C 1022.2 in /  34611.7 hPa North 6.4 mph /  10.3 km/h 6.4 mph /  10.3 km/h 69 % 0.0 in /  0 mm
23:27 14.1 °F /  -9.9 °C 8.5 °F /  -13.1 °C 1022.2 in /  34611.7 hPa NE 6.4 mph /  10.3 km/h 11.3 mph /  18.2 km/h 69 % 0.0 in /  0 mm
23:32 14.1 °F /  -9.9 °C 8.5 °F /  -13.1 °C 1022.2 in /  34611.7 hPa NNE 4.8 mph /  7.7 km/h 11.3 mph /  18.2 km/h 69 % 0.0 in /  0 mm
23:37 14.1 °F /  -9.9 °C 8.5 °F /  -13.1 °C 1022.2 in /  34611.7 hPa NW 1.6 mph /  2.6 km/h 11.3 mph /  18.2 km/h 69 % 0.0 in /  0 mm
23:42 14.0 °F /  -10 °C 8.4 °F /  -13.1 °C 1022.2 in /  34611.7 hPa NE 1.6 mph /  2.6 km/h 8.0 mph /  12.9 km/h 69 % 0.0 in /  0 mm
23:47 14.0 °F /  -10 °C 8.4 °F /  -13.1 °C 1022.6 in /  34625.2 hPa Calm   8.0 mph /  12.9 km/h 69 % 0.0 in /  0 mm
23:52 13.7 °F /  -10.2 °C 8.3 °F /  -13.2 °C 1022.6 in /  34625.2 hPa WNW 1.6 mph /  2.6 km/h 8.0 mph /  12.9 km/h 70 % 0.0 in /  0 mm
23:57 13.4 °F /  -10.3 °C 8.2 °F /  -13.2 °C 1022.6 in /  34625.2 hPa NW 1.6 mph /  2.6 km/h 6.4 mph /  10.3 km/h 71 % 0.0 in /  0 mm
Meteo18
Compliments of Weather Underground - 4 mb

Script developed by  Jim McMurry - jmcmurry@mwt.net Adapted for the template by  Wim van der Kuil - Leuven-Template.eu

You find our weather info also at:

European Weather Network

Weather Underground

Equipment we use:

Weather-station
Davis Vue

Weather-program
Meteobridge

Weather-server
Raspberry PI 2 B+

Provider
1 and 1

Davis Vue

Meteobridge

Raspberry PI 2 B+

1 and 1